createdAt,value
2023-03-29T00:02:01.932Z,100749.78
2023-03-29T00:04:28.621Z,100747.94
2023-03-29T00:06:55.685Z,100741.91
2023-03-29T00:09:23.340Z,100736.88
2023-03-29T00:11:49.759Z,100734.22
2023-03-29T00:14:16.428Z,100724.75
2023-03-29T00:16:44.753Z,100712.81
2023-03-29T00:19:11.437Z,100706.75
2023-03-29T00:21:38.010Z,100697.97
2023-03-29T00:24:04.874Z,100701.22
2023-03-29T00:26:31.317Z,100698.72
2023-03-29T00:28:57.769Z,100698.69
2023-03-29T00:31:25.092Z,100695.22
2023-03-29T00:33:52.160Z,100699.66
2023-03-29T00:36:18.639Z,100690.19
2023-03-29T00:38:45.580Z,100692.03
2023-03-29T00:41:12.279Z,100681.66
2023-03-29T00:43:59.600Z,100693.69
2023-03-29T00:46:28.124Z,100690.38
2023-03-29T00:48:58.822Z,100697.03
2023-03-29T00:51:28.113Z,100689.28
2023-03-29T00:54:00.599Z,100687.59
2023-03-29T00:56:38.723Z,100679.69
2023-03-29T00:59:09.857Z,100683.03
2023-03-29T01:01:54.638Z,100679.59
2023-03-29T01:04:55.481Z,100672.66
2023-03-29T01:07:23.262Z,100672.59
2023-03-29T01:10:04.494Z,100664.84
2023-03-29T01:12:36.030Z,100670.97
2023-03-29T01:15:26.396Z,100667.53
2023-03-29T01:18:13.982Z,100668.34
2023-03-29T01:21:36.213Z,100675.38
2023-03-29T01:24:47.496Z,100665.69
2023-03-29T01:27:49.977Z,100670.03
2023-03-29T01:30:24.858Z,100663.16
2023-03-29T01:32:59.841Z,100658.97
2023-03-29T01:35:43.555Z,100651.88
2023-03-29T01:38:23.394Z,100655.41
2023-03-29T01:40:50.077Z,100656.31
2023-03-29T01:43:34.383Z,100648.63
2023-03-29T01:46:42.471Z,100653.72
2023-03-29T01:49:25.484Z,100643.31
2023-03-29T01:51:59.952Z,100639.13
2023-03-29T01:54:33.624Z,100636.50
2023-03-29T01:57:04.674Z,100627.84
2023-03-29T01:59:37.395Z,100626.19
2023-03-29T02:02:08.077Z,100621.19
2023-03-29T02:04:39.706Z,100623.69
2023-03-29T02:07:08.752Z,100615.88
2023-03-29T02:09:37.726Z,100625.41
2023-03-29T02:12:08.174Z,100620.16
2023-03-29T02:14:35.511Z,100615.78
2023-03-29T02:17:19.572Z,100608.06
2023-03-29T02:19:52.405Z,100606.44
2023-03-29T02:22:26.485Z,100599.50
2023-03-29T02:24:58.961Z,100596.94
2023-03-29T02:27:29.124Z,100599.53
2023-03-29T02:29:57.083Z,100602.09
2023-03-29T02:32:48.937Z,100598.56
2023-03-29T02:35:48.395Z,100591.63
2023-03-29T02:38:17.065Z,100578.59
2023-03-29T02:40:46.627Z,100576.16
2023-03-29T02:43:15.754Z,100576.13
2023-03-29T02:45:44.173Z,100575.97
2023-03-29T02:48:17.745Z,100569.00
2023-03-29T02:50:49.924Z,100566.44
2023-03-29T02:53:22.985Z,100564.63
2023-03-29T02:55:52.779Z,100555.91
2023-03-29T02:58:20.541Z,100549.81
2023-03-29T03:00:48.912Z,100550.72
2023-03-29T03:03:15.583Z,100543.78
2023-03-29T03:05:44.232Z,100535.25
2023-03-29T03:08:10.900Z,100550.91
2023-03-29T03:10:38.005Z,100555.56
2023-03-29T03:13:04.571Z,100557.13
2023-03-29T03:15:35.493Z,100560.56
2023-03-29T03:18:03.559Z,100556.19
2023-03-29T03:20:31.040Z,100553.69
2023-03-29T03:22:58.437Z,100554.59
2023-03-29T03:25:25.043Z,100561.44
2023-03-29T03:27:51.749Z,100565.72
2023-03-29T03:30:21.984Z,100560.41
2023-03-29T03:33:28.162Z,100553.50
2023-03-29T03:36:26.015Z,100551.00
2023-03-29T03:38:53.264Z,100545.78
2023-03-29T03:41:20.705Z,100543.13
2023-03-29T03:43:48.876Z,100538.00
2023-03-29T03:46:17.132Z,100542.44
2023-03-29T03:48:45.905Z,100539.78
2023-03-29T03:51:19.907Z,100539.88
2023-03-29T03:53:46.769Z,100533.00
2023-03-29T03:56:13.957Z,100534.75
2023-03-29T03:58:59.164Z,100541.56
2023-03-29T04:01:28.068Z,100536.38
2023-03-29T04:04:04.525Z,100534.69
2023-03-29T04:06:31.332Z,100538.22
2023-03-29T04:09:18.076Z,100536.38
2023-03-29T04:11:52.956Z,100539.84
2023-03-29T04:14:20.496Z,100538.94
2023-03-29T04:17:07.236Z,100542.47
2023-03-29T04:19:48.035Z,100536.50
2023-03-29T04:22:14.696Z,100535.66
2023-03-29T04:24:42.003Z,100541.03
2023-03-29T04:27:24.919Z,100533.13
2023-03-29T04:29:51.521Z,100545.22
2023-03-29T04:32:25.939Z,100538.25
2023-03-29T04:34:58.157Z,100538.25
2023-03-29T04:37:24.927Z,100537.44
2023-03-29T04:39:54.589Z,100534.00
2023-03-29T04:42:24.587Z,100546.94
2023-03-29T04:44:51.440Z,100542.56
2023-03-29T04:47:29.531Z,100544.25
2023-03-29T04:50:01.588Z,100540.72
2023-03-29T04:52:38.668Z,100546.69
2023-03-29T04:55:07.347Z,100539.78
2023-03-29T04:57:41.712Z,100538.78
2023-03-29T05:00:17.254Z,100533.50
2023-03-29T05:03:07.426Z,100529.16
2023-03-29T05:05:38.513Z,100523.94
2023-03-29T05:08:07.111Z,100522.84
2023-03-29T05:10:44.401Z,100534.81
2023-03-29T05:13:12.278Z,100533.91
2023-03-29T05:15:41.352Z,100531.41
2023-03-29T05:18:07.995Z,100539.91
2023-03-29T05:20:34.698Z,100545.09
2023-03-29T05:23:01.923Z,100536.38
2023-03-29T05:25:52.911Z,100539.78
2023-03-29T05:28:19.721Z,100537.91
2023-03-29T05:30:47.402Z,100533.47
2023-03-29T05:33:20.910Z,100534.31
2023-03-29T05:35:47.457Z,100529.78
2023-03-29T05:38:14.088Z,100534.94
2023-03-29T05:40:41.737Z,100534.91
2023-03-29T05:43:33.870Z,100543.50
2023-03-29T05:46:10.519Z,100535.84
2023-03-29T05:48:41.609Z,100544.41
2023-03-29T05:51:08.455Z,100535.66
2023-03-29T05:53:35.971Z,100541.66
2023-03-29T05:56:04.114Z,100542.34
2023-03-29T05:58:31.166Z,100545.72
2023-03-29T06:01:00.336Z,100542.34
2023-03-29T06:03:50.887Z,100538.75
2023-03-29T06:06:21.280Z,100541.25
2023-03-29T06:08:48.037Z,100535.16
2023-03-29T06:11:34.915Z,100530.09
2023-03-29T06:14:20.864Z,100536.94
2023-03-29T06:16:53.470Z,100542.88
2023-03-29T06:19:20.417Z,100547.13
2023-03-29T06:21:47.314Z,100553.09
2023-03-29T06:24:18.667Z,100557.28
2023-03-29T06:26:52.287Z,100562.44
2023-03-29T06:29:21.965Z,100563.25
2023-03-29T06:31:49.110Z,100567.47
2023-03-29T06:34:38.078Z,100564.66
2023-03-29T06:37:27.583Z,100562.13
2023-03-29T06:40:06.958Z,100569.78
2023-03-29T06:42:40.655Z,100566.31
2023-03-29T06:45:32.430Z,100568.97
2023-03-29T06:48:03.031Z,100561.94
2023-03-29T06:50:30.960Z,100567.84
2023-03-29T06:53:07.284Z,100560.06
2023-03-29T06:55:34.516Z,100566.72
2023-03-29T06:58:15.340Z,100559.63
2023-03-29T07:00:42.353Z,100566.41
2023-03-29T07:03:20.516Z,100569.00
2023-03-29T07:05:51.915Z,100579.44
2023-03-29T07:08:21.418Z,100569.78
2023-03-29T07:11:08.248Z,100570.41
2023-03-29T07:14:03.790Z,100582.47
2023-03-29T07:16:30.384Z,100575.44
2023-03-29T07:19:09.440Z,100579.47
2023-03-29T07:21:53.012Z,100584.44
2023-03-29T07:24:22.593Z,100588.66
2023-03-29T07:27:03.195Z,100589.94
2023-03-29T07:29:31.518Z,100589.03
2023-03-29T07:31:58.096Z,100598.56
2023-03-29T07:34:43.040Z,100580.88
2023-03-29T07:37:17.423Z,100584.22
2023-03-29T07:39:45.861Z,100590.09
2023-03-29T07:42:32.745Z,100591.72
2023-03-29T07:44:59.845Z,100585.47
2023-03-29T07:47:33.034Z,100591.53
2023-03-29T07:49:59.704Z,100591.63
2023-03-29T07:52:28.536Z,100592.38
2023-03-29T07:54:55.684Z,100594.03
2023-03-29T07:57:44.102Z,100592.25
2023-03-29T08:00:16.860Z,100596.47
2023-03-29T08:02:54.809Z,100600.56
2023-03-29T08:05:37.803Z,100594.47
2023-03-29T08:08:10.887Z,100597.00
2023-03-29T08:10:47.386Z,100599.66
2023-03-29T08:13:32.212Z,100600.53
2023-03-29T08:16:28.063Z,100602.75
2023-03-29T08:19:03.515Z,100591.34
2023-03-29T08:21:47.272Z,100586.66
2023-03-29T08:24:14.592Z,100583.22
2023-03-29T08:26:48.740Z,100585.78
2023-03-29T08:29:18.234Z,100582.13
2023-03-29T08:31:45.123Z,100584.41
2023-03-29T08:34:11.593Z,100574.66
2023-03-29T08:36:59.084Z,100590.16
2023-03-29T08:39:35.308Z,100587.88
2023-03-29T08:42:56.561Z,100597.22
2023-03-29T08:45:35.393Z,100585.19
2023-03-29T08:48:25.796Z,100588.09
2023-03-29T08:50:58.419Z,100587.84
2023-03-29T08:53:35.498Z,100589.50
2023-03-29T08:56:18.460Z,100587.84
2023-03-29T08:58:57.765Z,100577.59
2023-03-29T09:01:33.619Z,100583.97
2023-03-29T09:04:08.897Z,100580.69
2023-03-29T09:06:50.211Z,100573.88
2023-03-29T09:09:23.522Z,100581.16
2023-03-29T09:12:17.940Z,100591.44
2023-03-29T09:14:50.653Z,100594.50
2023-03-29T09:17:30.498Z,100592.09
2023-03-29T09:20:13.937Z,100596.16
2023-03-29T09:22:54.979Z,100595.75
2023-03-29T09:25:27.425Z,100587.69
2023-03-29T09:28:05.627Z,100581.00
2023-03-29T09:31:06.051Z,100579.50
2023-03-29T09:33:49.604Z,100571.84
2023-03-29T09:36:32.912Z,100578.44
2023-03-29T09:39:00.574Z,100582.63
2023-03-29T09:41:43.559Z,100590.19
2023-03-29T09:46:55.902Z,100593.91
2023-03-29T09:49:31.239Z,100591.09
2023-03-29T09:52:05.948Z,100593.63
2023-03-29T09:54:33.013Z,100583.72
2023-03-29T09:57:22.239Z,100587.47
2023-03-29T09:59:51.641Z,100573.41
2023-03-29T10:02:20.293Z,100580.25
2023-03-29T10:04:55.333Z,100572.09
2023-03-29T10:07:22.777Z,100562.13
2023-03-29T10:09:56.249Z,100558.75
2023-03-29T10:12:23.154Z,100560.06
2023-03-29T10:14:53.618Z,100562.28
2023-03-29T10:17:25.286Z,100548.13
2023-03-29T10:19:56.921Z,100539.34
2023-03-29T10:22:37.502Z,100556.16
2023-03-29T10:25:09.407Z,100553.34
2023-03-29T10:27:36.368Z,100555.22
2023-03-29T10:30:12.718Z,100544.88
2023-03-29T10:32:40.584Z,100539.09
2023-03-29T10:35:21.435Z,100535.00
2023-03-29T10:37:53.698Z,100541.22
2023-03-29T10:40:26.103Z,100540.03
2023-03-29T10:42:57.450Z,100515.69
2023-03-29T10:45:33.959Z,100518.25
2023-03-29T10:48:01.208Z,100520.72
2023-03-29T10:50:37.892Z,100514.16
2023-03-29T10:53:14.484Z,100516.41
2023-03-29T10:55:52.674Z,100519.34
2023-03-29T10:58:58.177Z,100506.78
2023-03-29T11:01:37.777Z,100503.94
2023-03-29T11:04:30.633Z,100489.50
2023-03-29T11:07:12.280Z,100488.34
2023-03-29T11:10:11.077Z,100487.00
2023-03-29T11:13:14.042Z,100492.59
2023-03-29T11:16:02.561Z,100502.91
2023-03-29T11:18:48.257Z,100503.94
2023-03-29T11:21:17.878Z,100495.03
2023-03-29T11:24:07.814Z,100494.53
2023-03-29T11:26:51.848Z,100483.78
2023-03-29T11:29:27.006Z,100488.56
2023-03-29T11:32:10.999Z,100494.16
2023-03-29T11:35:12.145Z,100488.81
2023-03-29T11:38:34.454Z,100499.41
2023-03-29T11:41:25.262Z,100495.56
2023-03-29T11:44:01.968Z,100496.06
2023-03-29T11:46:33.940Z,100498.22
2023-03-29T11:49:11.103Z,100475.03
2023-03-29T11:51:44.227Z,100476.69
2023-03-29T11:54:20.554Z,100473.66
2023-03-29T11:56:55.179Z,100474.22
2023-03-29T11:59:28.606Z,100460.56
2023-03-29T12:02:01.758Z,100462.88
2023-03-29T12:04:37.806Z,100459.41
2023-03-29T12:07:21.014Z,100467.41
2023-03-29T12:09:50.890Z,100461.28
2023-03-29T12:12:57.329Z,100452.25
2023-03-29T12:15:26.812Z,100452.44
2023-03-29T12:18:14.666Z,100458.19
2023-03-29T12:20:42.080Z,100462.06
2023-03-29T12:23:15.808Z,100453.09
2023-03-29T12:26:02.234Z,100442.41
2023-03-29T12:28:59.778Z,100435.53
2023-03-29T12:31:57.605Z,100435.97
2023-03-29T12:34:51.031Z,100436.28
2023-03-29T12:37:44.635Z,100421.72
2023-03-29T12:40:40.374Z,100423.53
2023-03-29T12:43:38.330Z,100422.88
2023-03-29T12:46:32.929Z,100416.47
2023-03-29T12:49:29.625Z,100408.47
2023-03-29T12:52:00.089Z,100408.28
2023-03-29T12:54:30.634Z,100414.53
2023-03-29T12:57:01.890Z,100411.03
2023-03-29T12:59:43.374Z,100406.09
2023-03-29T13:02:13.973Z,100402.63
2023-03-29T13:04:43.801Z,100397.75
2023-03-29T13:07:22.542Z,100397.06
2023-03-29T13:09:52.999Z,100381.25
2023-03-29T13:12:35.035Z,100382.31
2023-03-29T13:15:23.705Z,100388.47
2023-03-29T13:18:06.139Z,100390.44
2023-03-29T13:20:51.026Z,100379.84
2023-03-29T13:23:45.621Z,100367.59
2023-03-29T13:26:31.455Z,100372.03
2023-03-29T13:29:07.322Z,100364.09
2023-03-29T13:31:44.500Z,100360.72
2023-03-29T13:34:48.726Z,100369.13
2023-03-29T13:37:41.373Z,100360.00
2023-03-29T13:40:44.633Z,100359.41
2023-03-29T13:43:20.222Z,100356.56
2023-03-29T13:45:58.960Z,100354.09
2023-03-29T13:48:35.808Z,100348.06
2023-03-29T13:51:19.176Z,100340.69
2023-03-29T13:53:49.737Z,100330.75
2023-03-29T13:56:23.256Z,100346.81
2023-03-29T13:58:59.106Z,100338.59
2023-03-29T14:01:58.170Z,100331.94
2023-03-29T14:04:30.322Z,100337.91
2023-03-29T14:06:57.857Z,100331.44
2023-03-29T14:09:31.505Z,100329.69
2023-03-29T14:12:00.646Z,100326.16
2023-03-29T14:14:30.300Z,100313.00
2023-03-29T14:16:57.192Z,100330.19
2023-03-29T14:19:36.244Z,100315.06
2023-03-29T14:22:08.359Z,100319.53
2023-03-29T14:24:39.468Z,100308.69
2023-03-29T14:27:10.196Z,100301.81
2023-03-29T14:29:36.924Z,100305.19
2023-03-29T14:32:18.508Z,100312.63
2023-03-29T14:34:49.646Z,100308.44
2023-03-29T14:37:21.920Z,100297.25
2023-03-29T14:39:49.433Z,100305.66
2023-03-29T14:42:21.245Z,100300.44
2023-03-29T14:44:50.148Z,100320.97
2023-03-29T14:47:38.996Z,100313.03
2023-03-29T14:50:06.228Z,100303.56
2023-03-29T14:52:34.360Z,100308.44
2023-03-29T14:55:02.601Z,100294.88
2023-03-29T14:57:35.625Z,100303.47
2023-03-29T15:00:16.195Z,100287.22
2023-03-29T15:02:53.237Z,100288.16
2023-03-29T15:05:35.140Z,100275.47
2023-03-29T15:08:02.778Z,100279.59
2023-03-29T15:10:32.779Z,100270.44
2023-03-29T15:13:02.532Z,100270.94
2023-03-29T15:15:32.779Z,100271.47
2023-03-29T15:18:00.884Z,100275.38
2023-03-29T15:20:36.551Z,100270.66
2023-03-29T15:23:07.688Z,100280.25
2023-03-29T15:25:39.394Z,100293.31
2023-03-29T15:28:06.141Z,100287.59
2023-03-29T15:30:34.740Z,100274.91
2023-03-29T15:33:20.375Z,100285.66
2023-03-29T15:35:50.422Z,100280.84
2023-03-29T15:38:17.669Z,100285.41
2023-03-29T15:40:44.280Z,100284.72
2023-03-29T15:43:11.216Z,100283.28
2023-03-29T15:45:38.002Z,100291.94
2023-03-29T15:48:20.011Z,100287.56
2023-03-29T15:50:46.644Z,100276.28
2023-03-29T15:53:15.529Z,100281.09
2023-03-29T15:55:45.801Z,100280.53
2023-03-29T15:58:15.074Z,100273.88
2023-03-29T16:00:44.490Z,100268.78
2023-03-29T16:03:15.054Z,100267.34
2023-03-29T16:05:43.528Z,100268.13
2023-03-29T16:08:11.287Z,100268.03
2023-03-29T16:10:38.841Z,100256.84
2023-03-29T16:13:05.824Z,100261.97
2023-03-29T16:15:33.720Z,100262.19
2023-03-29T16:18:00.408Z,100259.28
2023-03-29T16:20:26.973Z,100266.38
2023-03-29T16:22:54.123Z,100259.03
2023-03-29T16:25:24.220Z,100263.84
2023-03-29T16:27:52.738Z,100257.97
2023-03-29T16:30:19.834Z,100256.22
2023-03-29T16:32:46.529Z,100257.25
2023-03-29T16:35:25.083Z,100252.19
2023-03-29T16:37:51.557Z,100252.78
2023-03-29T16:40:18.138Z,100258.81
2023-03-29T16:42:44.596Z,100244.72
2023-03-29T16:45:15.793Z,100239.63
2023-03-29T16:47:46.061Z,100232.03
2023-03-29T16:50:13.612Z,100239.44
2023-03-29T16:52:40.847Z,100231.25
2023-03-29T16:55:12.063Z,100226.47
2023-03-29T16:57:40.117Z,100224.69
2023-03-29T17:00:10.822Z,100221.44
2023-03-29T17:02:37.621Z,100226.22
2023-03-29T17:05:04.646Z,100221.53
2023-03-29T17:07:31.192Z,100214.84
2023-03-29T17:09:57.640Z,100210.16
2023-03-29T17:12:24.229Z,100209.59
2023-03-29T17:14:51.210Z,100204.25
2023-03-29T17:17:17.596Z,100198.22
2023-03-29T17:19:44.264Z,100200.88
2023-03-29T17:22:10.678Z,100195.97
2023-03-29T17:24:37.102Z,100200.19
2023-03-29T17:27:03.931Z,100206.03
2023-03-29T17:29:30.646Z,100202.81
2023-03-29T17:31:57.132Z,100195.41
2023-03-29T17:34:23.655Z,100193.94
2023-03-29T17:36:53.302Z,100191.34
2023-03-29T17:39:19.787Z,100194.94
2023-03-29T17:41:47.229Z,100199.16
2023-03-29T17:44:13.772Z,100193.03
2023-03-29T17:46:40.396Z,100193.53
2023-03-29T17:49:07.246Z,100201.50
2023-03-29T17:51:33.999Z,100192.09
2023-03-29T17:54:01.588Z,100193.22
2023-03-29T17:56:28.280Z,100192.09
2023-03-29T17:58:55.394Z,100183.28
2023-03-29T18:01:22.187Z,100188.47
2023-03-29T18:03:48.807Z,100182.16
2023-03-29T18:06:18.071Z,100179.34
2023-03-29T18:08:44.671Z,100182.06
2023-03-29T18:11:22.268Z,100177.84
2023-03-29T18:13:50.419Z,100174.47
2023-03-29T18:16:17.001Z,100175.59
2023-03-29T18:18:43.712Z,100172.28
2023-03-29T18:21:10.771Z,100171.53
2023-03-29T18:23:39.902Z,100177.91
2023-03-29T18:26:07.439Z,100178.13
2023-03-29T18:28:36.200Z,100189.28
2023-03-29T18:31:03.992Z,100187.41
2023-03-29T18:33:35.165Z,100185.81
2023-03-29T18:36:04.697Z,100184.31
2023-03-29T18:38:35.149Z,100179.16
2023-03-29T18:41:03.223Z,100185.63
2023-03-29T18:43:31.808Z,100183.16
2023-03-29T18:45:58.337Z,100184.19
2023-03-29T18:48:25.053Z,100174.25
2023-03-29T18:50:52.136Z,100176.97
2023-03-29T18:53:19.540Z,100183.84
2023-03-29T18:55:45.997Z,100180.44
2023-03-29T18:58:14.041Z,100179.59
2023-03-29T19:00:41.640Z,100179.41
2023-03-29T19:03:08.845Z,100172.09
2023-03-29T19:05:39.190Z,100167.13
2023-03-29T19:08:06.884Z,100158.19
2023-03-29T19:10:37.849Z,100165.34
2023-03-29T19:13:04.448Z,100165.34
2023-03-29T19:15:32.409Z,100165.13
2023-03-29T19:17:58.936Z,100167.97
2023-03-29T19:20:25.709Z,100164.97
2023-03-29T19:22:53.407Z,100158.69
2023-03-29T19:25:19.881Z,100160.19
2023-03-29T19:27:46.370Z,100147.41
2023-03-29T19:30:14.503Z,100142.72
2023-03-29T19:32:40.921Z,100134.38
2023-03-29T19:35:09.517Z,100129.75
2023-03-29T19:37:36.408Z,100129.97
2023-03-29T19:40:06.175Z,100130.06
2023-03-29T19:42:35.945Z,100116.28
2023-03-29T19:45:03.802Z,100118.50
2023-03-29T19:47:30.560Z,100113.44
2023-03-29T19:50:01.071Z,100105.56
2023-03-29T19:52:28.345Z,100099.56
2023-03-29T19:54:56.527Z,100082.44
2023-03-29T19:57:23.853Z,100082.34
2023-03-29T19:59:50.903Z,100074.47
2023-03-29T20:02:17.538Z,100083.03
2023-03-29T20:04:44.276Z,100070.28
2023-03-29T20:07:10.838Z,100077.69
2023-03-29T20:09:37.712Z,100075.63
2023-03-29T20:12:04.791Z,100065.97
2023-03-29T20:14:31.457Z,100061.72
2023-03-29T20:16:58.427Z,100054.34
2023-03-29T20:19:25.341Z,100042.97
2023-03-29T20:21:57.353Z,100046.34
2023-03-29T20:24:25.114Z,100042.03
2023-03-29T20:26:51.968Z,100037.63
2023-03-29T20:29:18.870Z,100046.28
2023-03-29T20:31:46.252Z,100030.78
2023-03-29T20:34:12.859Z,100030.47
2023-03-29T20:36:40.344Z,100026.56
2023-03-29T20:39:08.162Z,100027.31
2023-03-29T20:41:38.096Z,100023.75
2023-03-29T20:44:05.594Z,100020.19
2023-03-29T20:46:35.629Z,100023.84
2023-03-29T20:49:07.284Z,100013.34
2023-03-29T20:51:33.820Z,100007.25
2023-03-29T20:54:04.937Z,100006.59
2023-03-29T20:56:33.821Z,100012.78
2023-03-29T20:59:00.659Z,100005.81
2023-03-29T21:01:29.511Z,100003.13
2023-03-29T21:03:56.321Z,100003.03
2023-03-29T21:06:24.429Z,100003.47
2023-03-29T21:08:52.618Z,100006.19
2023-03-29T21:11:20.834Z,99999.59
2023-03-29T21:13:47.618Z,100007.72
2023-03-29T21:16:14.179Z,99996.78
2023-03-29T21:18:40.903Z,100002.88
2023-03-29T21:21:08.593Z,100002.94
2023-03-29T21:23:36.133Z,99986.41
2023-03-29T21:26:04.057Z,99986.13
2023-03-29T21:28:30.830Z,99980.97
2023-03-29T21:30:57.527Z,99980.69
2023-03-29T21:33:24.063Z,99987.09
2023-03-29T21:35:50.761Z,99972.72
2023-03-29T21:38:17.693Z,99971.97
2023-03-29T21:40:44.165Z,99968.41
2023-03-29T21:43:10.817Z,99960.41
2023-03-29T21:45:37.424Z,99959.09
2023-03-29T21:48:04.229Z,99964.28
2023-03-29T21:50:33.344Z,99970.16
2023-03-29T21:53:02.056Z,99966.06
2023-03-29T21:55:28.655Z,99954.81
2023-03-29T21:57:55.268Z,99954.06
2023-03-29T22:00:22.303Z,99963.91
2023-03-29T22:02:49.069Z,99964.75
2023-03-29T22:05:16.480Z,99967.28
2023-03-29T22:07:43.262Z,99956.97
2023-03-29T22:10:12.364Z,99958.44
2023-03-29T22:12:39.634Z,99955.47
2023-03-29T22:15:07.805Z,99955.72
2023-03-29T22:17:35.725Z,99954.97
2023-03-29T22:20:04.499Z,99966.09
2023-03-29T22:22:30.965Z,99957.16
2023-03-29T22:24:57.501Z,99953.97
2023-03-29T22:27:23.952Z,99962.00
2023-03-29T22:29:50.739Z,99966.63
2023-03-29T22:32:17.188Z,99963.06
2023-03-29T22:34:43.998Z,99954.53
2023-03-29T22:37:10.610Z,99957.06
2023-03-29T22:39:37.342Z,99960.31
2023-03-29T22:42:04.064Z,99953.28
2023-03-29T22:44:30.702Z,99959.88
2023-03-29T22:46:57.356Z,99959.78
2023-03-29T22:49:23.998Z,99961.22
2023-03-29T22:51:50.399Z,99957.75
2023-03-29T22:54:16.930Z,99959.97
2023-03-29T22:56:44.490Z,99974.06
2023-03-29T22:59:11.063Z,99965.44
2023-03-29T23:01:37.686Z,99968.91
2023-03-29T23:04:04.536Z,99976.72
2023-03-29T23:06:31.071Z,99976.38
2023-03-29T23:08:57.731Z,99980.47
2023-03-29T23:11:24.385Z,99985.09
2023-03-29T23:13:50.952Z,99977.59
2023-03-29T23:16:20.797Z,99968.38
2023-03-29T23:18:47.977Z,99969.81
2023-03-29T23:21:14.523Z,99969.81
2023-03-29T23:23:41.243Z,99968.22
2023-03-29T23:26:11.334Z,99955.91
2023-03-29T23:28:38.068Z,99958.44
2023-03-29T23:31:06.373Z,99955.56
2023-03-29T23:33:35.412Z,99965.78
2023-03-29T23:36:04.618Z,99950.09
2023-03-29T23:38:34.271Z,99936.00
2023-03-29T23:41:02.785Z,99913.59
2023-03-29T23:43:32.671Z,99913.28
2023-03-29T23:46:11.085Z,99902.31
2023-03-29T23:48:38.572Z,99892.88
2023-03-29T23:51:07.611Z,99894.44
2023-03-29T23:53:34.332Z,99899.41
2023-03-29T23:56:03.104Z,99887.09
2023-03-29T23:58:35.042Z,99894.88
